X  Close Metar Aviation Weather Data     EHKD De Kooy Airport
Temperature
6°C Temperature
2°C Dewpoint
76% Humidity



Wind
23 KM/H
14 MPH
6 M/S
12 KTS



350°
N
Current Conditions

Partly Cloudy Partly Cloudy
Pressure 1018.96 (hPa) - 30.09 (inHg)
Visibility 6 (mile) - 9.7 (km)
Airport
Airport-code EHKD

Location: De Kooy Airport
Distance: 34 (km)

Metar:
EHKD 200425Z AUTO 35012G24KT 290V030 9999 FEW016 SCT032 BKN037 06/02 Q1019 BLU TEMPO 4500 -SHRA SCT015 SCT020CB BKN022

Time: 20-04-2024 06:25 CEST